sensor_id;sensor_type;location;lat;lon;timestamp;pressure;altitude;pressure_sealevel;temperature;humidity
65997;BME280;52765;52.258;21.052;2023-02-12T00:00:07;101880.50;;;2.00;89.62
65997;BME280;52765;52.258;21.052;2023-02-12T00:02:33;101894.75;;;1.97;88.23
65997;BME280;52765;52.258;21.052;2023-02-12T00:04:58;101890.63;;;1.90;89.37
65997;BME280;52765;52.258;21.052;2023-02-12T00:07:24;101887.91;;;1.92;88.80
65997;BME280;52765;52.258;21.052;2023-02-12T00:09:49;101897.72;;;1.90;88.47
65997;BME280;52765;52.258;21.052;2023-02-12T00:12:15;101917.88;;;1.95;88.53
65997;BME280;52765;52.258;21.052;2023-02-12T00:14:40;101915.47;;;1.89;88.77
65997;BME280;52765;52.258;21.052;2023-02-12T00:17:06;101926.34;;;1.83;90.09
65997;BME280;52765;52.258;21.052;2023-02-12T00:19:31;101923.69;;;1.83;90.20
65997;BME280;52765;52.258;21.052;2023-02-12T00:21:57;101928.38;;;1.76;89.12
65997;BME280;52765;52.258;21.052;2023-02-12T00:24:22;101940.13;;;1.71;89.78
65997;BME280;52765;52.258;21.052;2023-02-12T00:26:48;101943.13;;;1.61;89.64
65997;BME280;52765;52.258;21.052;2023-02-12T00:29:15;101945.50;;;1.69;89.04
65997;BME280;52765;52.258;21.052;2023-02-12T00:31:40;101945.56;;;1.67;88.35
65997;BME280;52765;52.258;21.052;2023-02-12T00:34:06;101942.72;;;1.72;88.54
65997;BME280;52765;52.258;21.052;2023-02-12T00:36:32;101946.38;;;1.70;88.39
65997;BME280;52765;52.258;21.052;2023-02-12T00:39:00;101948.28;;;1.66;88.59
65997;BME280;52765;52.258;21.052;2023-02-12T00:41:26;101947.25;;;1.70;87.72
65997;BME280;52765;52.258;21.052;2023-02-12T00:43:53;101948.91;;;1.73;88.22
65997;BME280;52765;52.258;21.052;2023-02-12T00:46:20;101956.88;;;1.73;87.97
65997;BME280;52765;52.258;21.052;2023-02-12T00:48:45;101951.31;;;1.79;88.52
65997;BME280;52765;52.258;21.052;2023-02-12T00:51:11;101954.66;;;1.84;88.12
65997;BME280;52765;52.258;21.052;2023-02-12T00:53:37;101952.56;;;1.92;87.99
65997;BME280;52765;52.258;21.052;2023-02-12T00:56:03;101971.56;;;2.05;88.32
65997;BME280;52765;52.258;21.052;2023-02-12T00:58:28;101973.88;;;2.13;88.06
65997;BME280;52765;52.258;21.052;2023-02-12T01:00:53;101970.53;;;2.08;86.01
65997;BME280;52765;52.258;21.052;2023-02-12T01:03:19;101969.75;;;2.06;85.07
65997;BME280;52765;52.258;21.052;2023-02-12T01:05:45;101984.00;;;2.03;84.81
65997;BME280;52765;52.258;21.052;2023-02-12T01:08:11;101985.03;;;2.00;84.43
65997;BME280;52765;52.258;21.052;2023-02-12T01:10:37;101984.00;;;2.03;84.82
65997;BME280;52765;52.258;21.052;2023-02-12T01:13:03;101996.28;;;2.07;85.50
65997;BME280;52765;52.258;21.052;2023-02-12T01:15:28;101991.97;;;2.03;83.32
65997;BME280;52765;52.258;21.052;2023-02-12T01:17:54;102003.56;;;2.02;84.23
65997;BME280;52765;52.258;21.052;2023-02-12T01:20:22;101995.66;;;2.00;82.81
65997;BME280;52765;52.258;21.052;2023-02-12T01:22:47;102016.47;;;1.89;81.98
65997;BME280;52765;52.258;21.052;2023-02-12T01:25:13;102020.34;;;1.80;82.16
65997;BME280;52765;52.258;21.052;2023-02-12T01:27:39;102024.03;;;1.76;82.98
65997;BME280;52765;52.258;21.052;2023-02-12T01:30:06;102027.53;;;1.78;82.67
65997;BME280;52765;52.258;21.052;2023-02-12T01:32:33;102016.97;;;1.77;82.33
65997;BME280;52765;52.258;21.052;2023-02-12T01:34:58;102037.22;;;1.79;82.08
65997;BME280;52765;52.258;21.052;2023-02-12T01:37:24;102028.63;;;1.73;82.45
65997;BME280;52765;52.258;21.052;2023-02-12T01:39:49;102029.34;;;1.76;82.21
65997;BME280;52765;52.258;21.052;2023-02-12T01:42:15;102028.63;;;1.73;82.06
65997;BME280;52765;52.258;21.052;2023-02-12T01:45:22;102036.59;;;1.73;81.08
65997;BME280;52765;52.258;21.052;2023-02-12T01:47:54;102044.97;;;1.62;82.05
65997;BME280;52765;52.258;21.052;2023-02-12T01:50:21;102030.63;;;1.66;82.83
65997;BME280;52765;52.258;21.052;2023-02-12T01:52:50;102027.66;;;1.75;83.02
65997;BME280;52765;52.258;21.052;2023-02-12T01:55:19;102038.78;;;1.85;81.64
65997;BME280;52765;52.258;21.052;2023-02-12T01:57:46;102033.53;;;1.83;81.56
65997;BME280;52765;52.258;21.052;2023-02-12T02:00:16;102049.38;;;1.87;81.02
65997;BME280;52765;52.258;21.052;2023-02-12T02:02:47;102050.28;;;1.85;81.95
65997;BME280;52765;52.258;21.052;2023-02-12T02:05:17;102053.69;;;1.89;81.89
65997;BME280;52765;52.258;21.052;2023-02-12T02:07:45;102063.44;;;1.89;81.04
65997;BME280;52765;52.258;21.052;2023-02-12T02:10:10;102057.44;;;1.83;82.20
65997;BME280;52765;52.258;21.052;2023-02-12T02:12:37;102078.88;;;1.79;80.27
65997;BME280;52765;52.258;21.052;2023-02-12T02:15:23;102085.78;;;1.83;79.56
65997;BME280;52765;52.258;21.052;2023-02-12T02:17:52;102086.91;;;1.77;78.44
65997;BME280;52765;52.258;21.052;2023-02-12T02:23:09;102093.03;;;1.79;78.56
65997;BME280;52765;52.258;21.052;2023-02-12T02:34:28;102129.78;;;1.66;76.78
65997;BME280;52765;52.258;21.052;2023-02-12T02:37:19;102115.72;;;1.64;77.72
65997;BME280;52765;52.258;21.052;2023-02-12T02:39:53;102131.06;;;1.56;77.98
65997;BME280;52765;52.258;21.052;2023-02-12T02:43:04;102143.31;;;1.60;78.88
65997;BME280;52765;52.258;21.052;2023-02-12T02:50:27;102142.75;;;1.76;77.12
65997;BME280;52765;52.258;21.052;2023-02-12T02:53:31;102148.66;;;1.84;78.19
65997;BME280;52765;52.258;21.052;2023-02-12T02:55:57;102154.88;;;1.83;76.82
65997;BME280;52765;52.258;21.052;2023-02-12T02:58:31;102160.00;;;1.89;77.50
65997;BME280;52765;52.258;21.052;2023-02-12T03:01:04;102153.91;;;1.85;76.14
65997;BME280;52765;52.258;21.052;2023-02-12T03:03:53;102181.25;;;1.89;76.08
65997;BME280;52765;52.258;21.052;2023-02-12T03:09:05;102197.84;;;1.71;74.77
65997;BME280;52765;52.258;21.052;2023-02-12T03:11:34;102209.50;;;1.66;75.35
65997;BME280;52765;52.258;21.052;2023-02-12T03:16:43;102207.47;;;1.48;76.41
65997;BME280;52765;52.258;21.052;2023-02-12T03:19:18;102213.47;;;1.55;76.82
65997;BME280;52765;52.258;21.052;2023-02-12T03:24:20;102228.47;;;1.56;76.48
65997;BME280;52765;52.258;21.052;2023-02-12T03:27:12;102231.91;;;1.59;76.38
65997;BME280;52765;52.258;21.052;2023-02-12T03:29:40;102238.19;;;1.57;76.13
65997;BME280;52765;52.258;21.052;2023-02-12T03:37:46;102249.34;;;1.66;76.35
65997;BME280;52765;52.258;21.052;2023-02-12T03:40:19;102264.28;;;1.71;76.48
65997;BME280;52765;52.258;21.052;2023-02-12T03:42:58;102271.25;;;1.73;75.81
65997;BME280;52765;52.258;21.052;2023-02-12T03:48:05;102273.66;;;1.81;75.68
65997;BME280;52765;52.258;21.052;2023-02-12T03:53:33;102275.53;;;1.79;75.34
65997;BME280;52765;52.258;21.052;2023-02-12T03:56:03;102291.31;;;1.83;75.76
65997;BME280;52765;52.258;21.052;2023-02-12T03:58:33;102298.59;;;1.78;75.12
65997;BME280;52765;52.258;21.052;2023-02-12T04:01:00;102294.13;;;1.79;75.78
65997;BME280;52765;52.258;21.052;2023-02-12T04:03:26;102292.28;;;1.81;73.87
65997;BME280;52765;52.258;21.052;2023-02-12T04:05:52;102290.44;;;1.83;74.14
65997;BME280;52765;52.258;21.052;2023-02-12T04:08:17;102290.47;;;1.81;74.52
65997;BME280;52765;52.258;21.052;2023-02-12T04:13:27;102292.03;;;1.89;73.63
65997;BME280;52765;52.258;21.052;2023-02-12T04:16:08;102292.03;;;1.89;73.68
65997;BME280;52765;52.258;21.052;2023-02-12T04:18:41;102303.56;;;1.88;73.50
65997;BME280;52765;52.258;21.052;2023-02-12T04:27:08;102306.78;;;1.97;72.83
65997;BME280;52765;52.258;21.052;2023-02-12T04:30:02;102312.09;;;1.97;73.83
65997;BME280;52765;52.258;21.052;2023-02-12T04:32:46;102306.88;;;1.94;73.23
65997;BME280;52765;52.258;21.052;2023-02-12T04:35:31;102312.19;;;1.94;73.46
65997;BME280;52765;52.258;21.052;2023-02-12T04:38:14;102315.66;;;1.96;73.88
65997;BME280;52765;52.258;21.052;2023-02-12T04:40:42;102310.41;;;1.95;74.02
65997;BME280;52765;52.258;21.052;2023-02-12T04:43:08;102313.00;;;1.96;74.40
65997;BME280;52765;52.258;21.052;2023-02-12T04:45:35;102316.59;;;1.95;73.28
65997;BME280;52765;52.258;21.052;2023-02-12T04:48:02;102322.66;;;1.99;73.86
65997;BME280;52765;52.258;21.052;2023-02-12T04:50:39;102329.75;;;2.00;74.13
65997;BME280;52765;52.258;21.052;2023-02-12T04:53:06;102324.63;;;1.94;74.82
65997;BME280;52765;52.258;21.052;2023-02-12T04:55:32;102327.88;;;2.02;73.89
65997;BME280;52765;52.258;21.052;2023-02-12T04:57:57;102334.00;;;2.04;73.92
65997;BME280;52765;52.258;21.052;2023-02-12T05:00:23;102344.75;;;2.01;73.87
65997;BME280;52765;52.258;21.052;2023-02-12T05:02:48;102343.75;;;2.05;74.26
65997;BME280;52765;52.258;21.052;2023-02-12T05:05:14;102351.81;;;2.02;73.78
65997;BME280;52765;52.258;21.052;2023-02-12T05:07:39;102359.09;;;1.97;74.72
65997;BME280;52765;52.258;21.052;2023-02-12T05:10:05;102373.19;;;1.99;75.23
65997;BME280;52765;52.258;21.052;2023-02-12T05:12:31;102365.16;;;2.00;74.22
65997;BME280;52765;52.258;21.052;2023-02-12T05:14:56;102376.66;;;2.01;74.46
65997;BME280;52765;52.258;21.052;2023-02-12T05:17:23;102381.97;;;2.01;73.50
65997;BME280;52765;52.258;21.052;2023-02-12T05:19:51;102386.56;;;1.96;74.19
65997;BME280;52765;52.258;21.052;2023-02-12T05:22:17;102383.00;;;1.97;75.13
65997;BME280;52765;52.258;21.052;2023-02-12T05:24:42;102390.66;;;2.06;72.35
65997;BME280;52765;52.258;21.052;2023-02-12T05:27:08;102398.91;;;1.98;71.51
65997;BME280;52765;52.258;21.052;2023-02-12T05:29:34;102396.44;;;1.92;72.37
65997;BME280;52765;52.258;21.052;2023-02-12T05:32:00;102405.13;;;1.97;72.78
65997;BME280;52765;52.258;21.052;2023-02-12T05:34:26;102411.31;;;1.98;72.32
65997;BME280;52765;52.258;21.052;2023-02-12T05:36:51;102410.41;;;1.99;72.75
65997;BME280;52765;52.258;21.052;2023-02-12T05:39:17;102408.59;;;1.99;72.22
65997;BME280;52765;52.258;21.052;2023-02-12T05:41:42;102419.22;;;1.99;71.55
65997;BME280;52765;52.258;21.052;2023-02-12T05:44:08;102426.41;;;1.97;70.88
65997;BME280;52765;52.258;21.052;2023-02-12T05:46:36;102437.19;;;1.93;70.45
65997;BME280;52765;52.258;21.052;2023-02-12T05:49:02;102436.31;;;1.92;70.48
65997;BME280;52765;52.258;21.052;2023-02-12T05:51:28;102440.91;;;1.87;70.16
65997;BME280;52765;52.258;21.052;2023-02-12T05:53:58;102440.91;;;1.87;70.03
65997;BME280;52765;52.258;21.052;2023-02-12T05:56:41;102440.28;;;1.79;69.74
65997;BME280;52765;52.258;21.052;2023-02-12T05:59:12;102454.56;;;1.75;70.85
65997;BME280;52765;52.258;21.052;2023-02-12T06:01:40;102449.38;;;1.72;70.85
65997;BME280;52765;52.258;21.052;2023-02-12T06:04:11;102461.63;;;1.76;71.06
65997;BME280;52765;52.258;21.052;2023-02-12T06:06:37;102467.09;;;1.71;70.17
65997;BME280;52765;52.258;21.052;2023-02-12T06:09:06;102468.88;;;1.71;70.65
65997;BME280;52765;52.258;21.052;2023-02-12T06:11:32;102481.41;;;1.67;71.38
65997;BME280;52765;52.258;21.052;2023-02-12T06:14:01;102490.88;;;1.46;71.89
65997;BME280;52765;52.258;21.052;2023-02-12T06:16:28;102486.84;;;1.33;73.25
65997;BME280;52765;52.258;21.052;2023-02-12T06:18:54;102501.91;;;1.32;73.41
65997;BME280;52765;52.258;21.052;2023-02-12T06:21:22;102509.56;;;1.43;73.36
65997;BME280;52765;52.258;21.052;2023-02-12T06:23:48;102499.63;;;1.50;71.74
65997;BME280;52765;52.258;21.052;2023-02-12T06:26:15;102508.16;;;1.61;71.77
65997;BME280;52765;52.258;21.052;2023-02-12T06:28:40;102497.25;;;1.70;71.34
65997;BME280;52765;52.258;21.052;2023-02-12T06:31:17;102499.44;;;1.85;71.09
65997;BME280;52765;52.258;21.052;2023-02-12T06:33:43;102517.06;;;1.88;70.18
65997;BME280;52765;52.258;21.052;2023-02-12T06:36:08;102505.47;;;1.91;69.71
65997;BME280;52765;52.258;21.052;2023-02-12T06:38:34;102500.06;;;1.94;69.83
65997;BME280;52765;52.258;21.052;2023-02-12T06:41:03;102509.72;;;1.96;68.99
65997;BME280;52765;52.258;21.052;2023-02-12T06:43:29;102497.84;;;1.80;69.71
65997;BME280;52765;52.258;21.052;2023-02-12T06:45:54;102510.03;;;1.87;70.58
65997;BME280;52765;52.258;21.052;2023-02-12T06:48:20;102501.00;;;1.91;70.44
65997;BME280;52765;52.258;21.052;2023-02-12T06:50:45;102498.56;;;1.85;70.08
65997;BME280;52765;52.258;21.052;2023-02-12T06:53:11;102497.63;;;1.86;70.05
65997;BME280;52765;52.258;21.052;2023-02-12T06:55:36;102516.44;;;1.80;69.80
65997;BME280;52765;52.258;21.052;2023-02-12T06:58:03;102508.69;;;1.72;69.82
65997;BME280;52765;52.258;21.052;2023-02-12T07:00:28;102508.69;;;1.72;70.33
65997;BME280;52765;52.258;21.052;2023-02-12T07:02:54;102518.13;;;1.82;70.35
65997;BME280;52765;52.258;21.052;2023-02-12T07:05:21;102528.53;;;1.90;70.35
65997;BME280;52765;52.258;21.052;2023-02-12T07:07:47;102521.38;;;1.92;69.45
65997;BME280;52765;52.258;21.052;2023-02-12T07:10:12;102509.84;;;1.93;68.89
65997;BME280;52765;52.258;21.052;2023-02-12T07:12:38;102526.16;;;2.09;69.30
65997;BME280;52765;52.258;21.052;2023-02-12T07:15:03;102533.31;;;2.62;67.62
65997;BME280;52765;52.258;21.052;2023-02-12T07:17:29;102535.50;;;3.01;64.53
65997;BME280;52765;52.258;21.052;2023-02-12T07:19:55;102542.34;;;3.08;64.21
65997;BME280;52765;52.258;21.052;2023-02-12T07:22:20;102552.34;;;3.02;63.90
65997;BME280;52765;52.258;21.052;2023-02-12T07:24:47;102543.91;;;2.89;64.25
65997;BME280;52765;52.258;21.052;2023-02-12T07:27:12;102541.78;;;2.73;64.14
65997;BME280;52765;52.258;21.052;2023-02-12T07:29:38;102537.59;;;2.66;64.22
65997;BME280;52765;52.258;21.052;2023-02-12T07:32:04;102540.47;;;2.60;63.94
65997;BME280;52765;52.258;21.052;2023-02-12T07:34:29;102533.44;;;2.57;64.01
65997;BME280;52765;52.258;21.052;2023-02-12T07:36:55;102533.50;;;2.56;63.89
65997;BME280;52765;52.258;21.052;2023-02-12T07:39:20;102533.44;;;2.57;64.58
65997;BME280;52765;52.258;21.052;2023-02-12T07:41:46;102526.38;;;2.56;64.11
65997;BME280;52765;52.258;21.052;2023-02-12T07:44:11;102530.63;;;2.62;63.55
65997;BME280;52765;52.258;21.052;2023-02-12T07:46:38;102535.84;;;2.65;63.87
65997;BME280;52765;52.258;21.052;2023-02-12T07:49:05;102544.59;;;2.69;63.47
65997;BME280;52765;52.258;21.052;2023-02-12T07:51:32;102552.59;;;2.69;63.38
65997;BME280;52765;52.258;21.052;2023-02-12T07:53:58;102548.03;;;2.72;62.89
65997;BME280;52765;52.258;21.052;2023-02-12T07:56:27;102553.16;;;2.78;63.67
65997;BME280;52765;52.258;21.052;2023-02-12T07:59:01;102561.13;;;2.78;63.12
65997;BME280;52765;52.258;21.052;2023-02-12T08:01:35;102558.38;;;2.82;63.72
65997;BME280;52765;52.258;21.052;2023-02-12T08:04:04;102563.56;;;2.85;64.02
65997;BME280;52765;52.258;21.052;2023-02-12T08:06:33;102565.53;;;2.80;63.13
65997;BME280;52765;52.258;21.052;2023-02-12T08:09:00;102559.34;;;2.79;63.64
65997;BME280;52765;52.258;21.052;2023-02-12T08:11:27;102565.31;;;2.86;63.84
65997;BME280;52765;52.258;21.052;2023-02-12T08:13:55;102571.41;;;2.89;63.62
65997;BME280;52765;52.258;21.052;2023-02-12T08:16:22;102573.88;;;2.95;64.33
65997;BME280;52765;52.258;21.052;2023-02-12T08:18:48;102574.13;;;2.88;64.32
65997;BME280;52765;52.258;21.052;2023-02-12T08:21:19;102584.38;;;3.00;63.54
65997;BME280;52765;52.258;21.052;2023-02-12T08:23:46;102585.06;;;3.05;62.59
65997;BME280;52765;52.258;21.052;2023-02-12T08:26:33;102587.13;;;2.97;61.90
65997;BME280;52765;52.258;21.052;2023-02-12T08:29:05;102581.88;;;2.69;62.40
65997;BME280;52765;52.258;21.052;2023-02-12T08:31:36;102594.50;;;2.62;63.12
65997;BME280;52765;52.258;21.052;2023-02-12T08:34:03;102588.31;;;2.62;62.88
65997;BME280;52765;52.258;21.052;2023-02-12T08:36:37;102595.38;;;2.63;63.24
65997;BME280;52765;52.258;21.052;2023-02-12T08:39:05;102593.97;;;2.51;62.82
65997;BME280;52765;52.258;21.052;2023-02-12T08:41:30;102581.66;;;2.48;63.00
65997;BME280;52765;52.258;21.052;2023-02-12T08:44:01;102577.72;;;2.60;63.54
65997;BME280;52765;52.258;21.052;2023-02-12T08:46:34;102573.75;;;2.73;63.34
65997;BME280;52765;52.258;21.052;2023-02-12T08:49:03;102584.00;;;2.84;62.40
65997;BME280;52765;52.258;21.052;2023-02-12T08:51:31;102571.75;;;2.80;62.48
65997;BME280;52765;52.258;21.052;2023-02-12T08:53:59;102581.28;;;2.86;62.43
65997;BME280;52765;52.258;21.052;2023-02-12T08:56:26;102570.44;;;2.92;61.48
65997;BME280;52765;52.258;21.052;2023-02-12T08:58:55;102573.75;;;2.99;61.57
65997;BME280;52765;52.258;21.052;2023-02-12T09:01:28;102587.59;;;3.10;61.07
65997;BME280;52765;52.258;21.052;2023-02-12T09:03:55;102592.84;;;3.11;60.39
65997;BME280;52765;52.258;21.052;2023-02-12T09:06:22;102592.84;;;3.11;60.75
65997;BME280;52765;52.258;21.052;2023-02-12T09:08:49;102573.13;;;3.17;60.68
65997;BME280;52765;52.258;21.052;2023-02-12T09:11:23;102587.09;;;3.24;60.64
65997;BME280;52765;52.258;21.052;2023-02-12T09:13:55;102591.16;;;3.09;61.13
65997;BME280;52765;52.258;21.052;2023-02-12T09:16:22;102601.09;;;3.04;61.08
65997;BME280;52765;52.258;21.052;2023-02-12T09:18:48;102595.72;;;3.05;61.33
65997;BME280;52765;52.258;21.052;2023-02-12T09:21:17;102593.50;;;3.18;60.86
65997;BME280;52765;52.258;21.052;2023-02-12T09:23:44;102600.13;;;3.31;60.60
65997;BME280;52765;52.258;21.052;2023-02-12T09:26:15;102602.50;;;3.39;59.93
65997;BME280;52765;52.258;21.052;2023-02-12T09:28:41;102613.72;;;3.49;59.71
65997;BME280;52765;52.258;21.052;2023-02-12T09:31:12;102606.25;;;3.59;59.84
65997;BME280;52765;52.258;21.052;2023-02-12T09:33:41;102609.03;;;3.56;59.79
65997;BME280;52765;52.258;21.052;2023-02-12T09:36:09;102610.56;;;3.38;60.15
65997;BME280;52765;52.258;21.052;2023-02-12T09:38:36;102623.00;;;3.12;62.08
65997;BME280;52765;52.258;21.052;2023-02-12T09:44:14;102622.88;;;2.90;62.98
65997;BME280;52765;52.258;21.052;2023-02-12T09:47:33;102622.44;;;3.02;62.43
65997;BME280;52765;52.258;21.052;2023-02-12T09:52:15;102621.44;;;3.31;61.74
65997;BME280;52765;52.258;21.052;2023-02-12T09:54:41;102626.44;;;3.41;61.60
65997;BME280;52765;52.258;21.052;2023-02-12T09:57:18;102635.78;;;3.52;61.89
65997;BME280;52765;52.258;21.052;2023-02-12T10:00:09;102633.81;;;3.58;61.22
65997;BME280;52765;52.258;21.052;2023-02-12T10:02:37;102642.75;;;3.57;61.33
65997;BME280;52765;52.258;21.052;2023-02-12T10:05:04;102628.06;;;3.70;60.56
65997;BME280;52765;52.258;21.052;2023-02-12T10:18:49;102627.84;;;4.00;59.01
65997;BME280;52765;52.258;21.052;2023-02-12T10:24:22;102624.81;;;3.85;60.07
65997;BME280;52765;52.258;21.052;2023-02-12T10:26:55;102629.66;;;3.98;59.28
65997;BME280;52765;52.258;21.052;2023-02-12T10:29:28;102638.94;;;4.11;58.86
65997;BME280;52765;52.258;21.052;2023-02-12T10:32:00;102632.81;;;4.09;58.62
65997;BME280;52765;52.258;21.052;2023-02-12T10:34:32;102643.34;;;4.12;58.19
65997;BME280;52765;52.258;21.052;2023-02-12T10:37:05;102635.94;;;3.97;58.59
65997;BME280;52765;52.258;21.052;2023-02-12T10:39:40;102634.41;;;3.89;58.50
65997;BME280;52765;52.258;21.052;2023-02-12T10:42:17;102627.31;;;3.66;58.66
65997;BME280;52765;52.258;21.052;2023-02-12T10:44:44;102615.16;;;3.58;58.79
65997;BME280;52765;52.258;21.052;2023-02-12T10:47:21;102620.16;;;3.67;58.02
65997;BME280;52765;52.258;21.052;2023-02-12T10:52:59;102621.66;;;3.74;59.29
65997;BME280;52765;52.258;21.052;2023-02-12T10:55:32;102622.53;;;3.75;59.56
65997;BME280;52765;52.258;21.052;2023-02-12T10:58:01;102620.59;;;3.80;59.17
65997;BME280;52765;52.258;21.052;2023-02-12T11:00:36;102632.88;;;3.84;59.37
65997;BME280;52765;52.258;21.052;2023-02-12T11:03:19;102635.25;;;3.92;58.66
65997;BME280;52765;52.258;21.052;2023-02-12T11:05:46;102631.41;;;3.99;58.86
65997;BME280;52765;52.258;21.052;2023-02-12T11:08:35;102624.00;;;4.07;58.99
65997;BME280;52765;52.258;21.052;2023-02-12T11:13:38;102622.56;;;3.49;61.74
65997;BME280;52765;52.258;21.052;2023-02-12T11:16:08;102630.56;;;3.49;61.89
65997;BME280;52765;52.258;21.052;2023-02-12T11:18:35;102626.31;;;3.69;62.21
65997;BME280;52765;52.258;21.052;2023-02-12T11:29:00;102631.31;;;3.78;61.24
65997;BME280;52765;52.258;21.052;2023-02-12T11:31:33;102622.03;;;3.88;61.38
65997;BME280;52765;52.258;21.052;2023-02-12T11:36:47;102620.66;;;4.02;62.06
65997;BME280;52765;52.258;21.052;2023-02-12T11:39:26;102620.53;;;4.05;60.80
65997;BME280;52765;52.258;21.052;2023-02-12T11:42:05;102610.44;;;4.13;60.08
65997;BME280;52765;52.258;21.052;2023-02-12T11:44:51;102611.19;;;4.17;60.61
65997;BME280;52765;52.258;21.052;2023-02-12T11:47:26;102613.72;;;4.20;60.29
65997;BME280;52765;52.258;21.052;2023-02-12T11:49:54;102611.53;;;4.30;61.07
65997;BME280;52765;52.258;21.052;2023-02-12T11:52:26;102606.25;;;4.06;60.42
65997;BME280;52765;52.258;21.052;2023-02-12T11:54:55;102600.81;;;3.85;62.36
65997;BME280;52765;52.258;21.052;2023-02-12T11:57:44;102603.59;;;3.82;62.67
65997;BME280;52765;52.258;21.052;2023-02-12T12:00:34;102607.53;;;3.96;62.59
65997;BME280;52765;52.258;21.052;2023-02-12T12:03:15;102611.91;;;4.20;61.88
65997;BME280;52765;52.258;21.052;2023-02-12T12:05:56;102606.34;;;4.26;60.75
65997;BME280;52765;52.258;21.052;2023-02-12T12:08:32;102610.63;;;4.53;60.04
65997;BME280;52765;52.258;21.052;2023-02-12T12:14:28;102600.50;;;4.61;59.84
65997;BME280;52765;52.258;21.052;2023-02-12T12:17:13;102595.66;;;4.71;59.04
65997;BME280;52765;52.258;21.052;2023-02-12T12:20:26;102591.31;;;4.46;60.13
65997;BME280;52765;52.258;21.052;2023-02-12T12:23:10;102585.63;;;4.55;59.58
65997;BME280;52765;52.258;21.052;2023-02-12T12:25:50;102574.91;;;4.35;60.64
65997;BME280;52765;52.258;21.052;2023-02-12T12:31:16;102594.97;;;4.66;59.99
65997;BME280;52765;52.258;21.052;2023-02-12T12:42:30;102585.00;;;4.49;60.00
65997;BME280;52765;52.258;21.052;2023-02-12T12:48:16;102579.41;;;4.55;59.71
65997;BME280;52765;52.258;21.052;2023-02-12T12:51:15;102583.59;;;4.82;59.05
65997;BME280;52765;52.258;21.052;2023-02-12T12:57:25;102571.97;;;4.63;56.19
65997;BME280;52765;52.258;21.052;2023-02-12T13:00:34;102574.59;;;4.85;56.03
65997;BME280;52765;52.258;21.052;2023-02-12T13:14:34;102555.34;;;5.57;54.99
65997;BME280;52765;52.258;21.052;2023-02-12T13:17:25;102560.88;;;5.73;55.35
65997;BME280;52765;52.258;21.052;2023-02-12T13:20:10;102559.97;;;5.54;56.63
65997;BME280;52765;52.258;21.052;2023-02-12T13:23:02;102563.03;;;5.26;58.22
65997;BME280;52765;52.258;21.052;2023-02-12T13:28:33;102566.72;;;5.23;56.87
65997;BME280;52765;52.258;21.052;2023-02-12T13:31:02;102560.78;;;5.16;56.90
65997;BME280;52765;52.258;21.052;2023-02-12T13:33:50;102561.38;;;5.23;56.92
65997;BME280;52765;52.258;21.052;2023-02-12T13:36:16;102559.38;;;5.28;57.24
65997;BME280;52765;52.258;21.052;2023-02-12T13:41:22;102563.25;;;5.00;56.90
65997;BME280;52765;52.258;21.052;2023-02-12T13:47:13;102562.16;;;4.84;58.09
65997;BME280;52765;52.258;21.052;2023-02-12T13:52:35;102557.22;;;4.95;58.33
65997;BME280;52765;52.258;21.052;2023-02-12T13:57:35;102568.59;;;4.80;59.79
65997;BME280;52765;52.258;21.052;2023-02-12T14:00:01;102549.91;;;4.58;60.13
65997;BME280;52765;52.258;21.052;2023-02-12T14:05:00;102567.81;;;4.34;62.02
65997;BME280;52765;52.258;21.052;2023-02-12T14:08:03;102564.81;;;4.19;64.15
65997;BME280;52765;52.258;21.052;2023-02-12T14:10:40;102568.66;;;4.12;65.47
65997;BME280;52765;52.258;21.052;2023-02-12T14:13:19;102570.41;;;4.13;66.04
65997;BME280;52765;52.258;21.052;2023-02-12T14:15:50;102572.59;;;4.25;65.99
65997;BME280;52765;52.258;21.052;2023-02-12T14:18:24;102582.91;;;4.35;65.61
65997;BME280;52765;52.258;21.052;2023-02-12T14:23:53;102573.72;;;4.20;66.36
65997;BME280;52765;52.258;21.052;2023-02-12T14:26:22;102573.19;;;4.10;65.89
65997;BME280;52765;52.258;21.052;2023-02-12T14:29:05;102558.69;;;3.72;67.93
65997;BME280;52765;52.258;21.052;2023-02-12T14:31:40;102575.06;;;3.84;67.97
65997;BME280;52765;52.258;21.052;2023-02-12T14:36:40;102568.00;;;3.83;68.59
65997;BME280;52765;52.258;21.052;2023-02-12T14:42:41;102553.53;;;3.67;73.98
65997;BME280;52765;52.258;21.052;2023-02-12T14:44:42;102563.75;;;3.78;75.04
65997;BME280;52765;52.258;21.052;2023-02-12T14:50:02;102556.59;;;3.56;75.29
65997;BME280;52765;52.258;21.052;2023-02-12T14:52:37;102560.03;;;3.60;75.57
65997;BME280;52765;52.258;21.052;2023-02-12T14:55:06;102553.47;;;3.45;76.54
65997;BME280;52765;52.258;21.052;2023-02-12T14:57:38;102554.34;;;3.45;76.29
65997;BME280;52765;52.258;21.052;2023-02-12T15:02:54;102555.41;;;3.40;77.49
65997;BME280;52765;52.258;21.052;2023-02-12T15:05:33;102563.06;;;3.25;77.82
65997;BME280;52765;52.258;21.052;2023-02-12T15:08:06;102565.19;;;3.15;78.81
65997;BME280;52765;52.258;21.052;2023-02-12T15:10:50;102564.31;;;3.15;79.68
65997;BME280;52765;52.258;21.052;2023-02-12T15:21:15;102564.88;;;2.98;80.42
65997;BME280;52765;52.258;21.052;2023-02-12T15:23:45;102572.16;;;2.93;80.45
65997;BME280;52765;52.258;21.052;2023-02-12T15:26:22;102572.44;;;2.85;80.97
65997;BME280;52765;52.258;21.052;2023-02-12T15:28:51;102568.50;;;2.70;82.95
65997;BME280;52765;52.258;21.052;2023-02-12T15:31:21;102570.41;;;2.67;83.19
65997;BME280;52765;52.258;21.052;2023-02-12T15:33:49;102575.03;;;2.62;83.09
65997;BME280;52765;52.258;21.052;2023-02-12T15:36:19;102583.66;;;2.68;82.92
65997;BME280;52765;52.258;21.052;2023-02-12T15:38:52;102574.84;;;2.66;84.05
65997;BME280;52765;52.258;21.052;2023-02-12T15:41:45;102570.59;;;2.61;82.97